sensor_id;sensor_type;location;lat;lon;timestamp;temperature;humidity
3075;DHT22;1548;51.716;8.748;2022-08-14T00:00:59;22.20;70.00
3075;DHT22;1548;51.716;8.748;2022-08-14T00:03:28;22.20;70.00
3075;DHT22;1548;51.716;8.748;2022-08-14T00:05:56;22.20;69.90
3075;DHT22;1548;51.716;8.748;2022-08-14T00:08:22;22.20;69.80
3075;DHT22;1548;51.716;8.748;2022-08-14T00:10:48;22.20;69.90
3075;DHT22;1548;51.716;8.748;2022-08-14T00:13:15;22.20;70.00
3075;DHT22;1548;51.716;8.748;2022-08-14T00:15:43;22.10;70.00
3075;DHT22;1548;51.716;8.748;2022-08-14T00:18:12;22.10;70.10
3075;DHT22;1548;51.716;8.748;2022-08-14T00:20:40;22.10;70.10
3075;DHT22;1548;51.716;8.748;2022-08-14T00:23:08;22.00;70.10
3075;DHT22;1548;51.716;8.748;2022-08-14T00:25:34;21.90;70.30
3075;DHT22;1548;51.716;8.748;2022-08-14T00:28:00;21.90;70.30
3075;DHT22;1548;51.716;8.748;2022-08-14T00:30:25;21.90;70.40
3075;DHT22;1548;51.716;8.748;2022-08-14T00:32:51;21.80;70.40
3075;DHT22;1548;51.716;8.748;2022-08-14T00:35:17;21.80;70.50
3075;DHT22;1548;51.716;8.748;2022-08-14T00:37:44;21.90;70.40
3075;DHT22;1548;51.716;8.748;2022-08-14T00:40:14;21.90;70.40
3075;DHT22;1548;51.716;8.748;2022-08-14T00:42:40;21.90;70.40
3075;DHT22;1548;51.716;8.748;2022-08-14T00:45:08;21.90;70.50
3075;DHT22;1548;51.716;8.748;2022-08-14T00:47:34;21.90;70.50
3075;DHT22;1548;51.716;8.748;2022-08-14T00:50:01;21.80;70.50
3075;DHT22;1548;51.716;8.748;2022-08-14T00:52:27;21.70;70.60
3075;DHT22;1548;51.716;8.748;2022-08-14T00:54:53;21.60;70.80
3075;DHT22;1548;51.716;8.748;2022-08-14T00:57:28;21.50;70.90
3075;DHT22;1548;51.716;8.748;2022-08-14T00:59:55;21.40;71.00
3075;DHT22;1548;51.716;8.748;2022-08-14T01:02:22;21.40;70.90
3075;DHT22;1548;51.716;8.748;2022-08-14T01:04:54;21.50;71.00
3075;DHT22;1548;51.716;8.748;2022-08-14T01:07:23;21.40;71.10
3075;DHT22;1548;51.716;8.748;2022-08-14T01:09:55;21.40;71.00
3075;DHT22;1548;51.716;8.748;2022-08-14T01:12:22;21.50;71.00
3075;DHT22;1548;51.716;8.748;2022-08-14T01:14:48;21.50;70.90
3075;DHT22;1548;51.716;8.748;2022-08-14T01:17:20;21.60;71.00
3075;DHT22;1548;51.716;8.748;2022-08-14T01:19:46;21.50;71.00
3075;DHT22;1548;51.716;8.748;2022-08-14T01:22:31;21.50;71.00
3075;DHT22;1548;51.716;8.748;2022-08-14T01:24:58;21.40;71.10
3075;DHT22;1548;51.716;8.748;2022-08-14T01:27:24;21.40;71.30
3075;DHT22;1548;51.716;8.748;2022-08-14T01:29:54;21.30;71.40
3075;DHT22;1548;51.716;8.748;2022-08-14T01:32:21;21.20;71.60
3075;DHT22;1548;51.716;8.748;2022-08-14T01:34:51;21.20;71.70
3075;DHT22;1548;51.716;8.748;2022-08-14T01:37:21;21.10;71.60
3075;DHT22;1548;51.716;8.748;2022-08-14T01:39:49;21.10;71.70
3075;DHT22;1548;51.716;8.748;2022-08-14T01:42:16;21.10;71.70
3075;DHT22;1548;51.716;8.748;2022-08-14T01:44:42;21.10;71.80
3075;DHT22;1548;51.716;8.748;2022-08-14T01:47:09;21.10;71.80
3075;DHT22;1548;51.716;8.748;2022-08-14T01:49:41;21.00;71.90
3075;DHT22;1548;51.716;8.748;2022-08-14T01:52:07;21.00;72.00
3075;DHT22;1548;51.716;8.748;2022-08-14T01:54:33;20.90;72.10
3075;DHT22;1548;51.716;8.748;2022-08-14T01:56:59;20.90;72.20
3075;DHT22;1548;51.716;8.748;2022-08-14T01:59:28;20.90;72.20
3075;DHT22;1548;51.716;8.748;2022-08-14T02:01:59;20.90;72.10
3075;DHT22;1548;51.716;8.748;2022-08-14T02:04:33;20.90;72.20
3075;DHT22;1548;51.716;8.748;2022-08-14T02:06:59;20.90;72.20
3075;DHT22;1548;51.716;8.748;2022-08-14T02:09:27;20.80;72.30
3075;DHT22;1548;51.716;8.748;2022-08-14T02:11:55;20.80;72.30
3075;DHT22;1548;51.716;8.748;2022-08-14T02:14:21;20.80;72.40
3075;DHT22;1548;51.716;8.748;2022-08-14T02:16:49;20.80;72.40
3075;DHT22;1548;51.716;8.748;2022-08-14T02:19:20;20.70;72.40
3075;DHT22;1548;51.716;8.748;2022-08-14T02:21:49;20.70;72.50
3075;DHT22;1548;51.716;8.748;2022-08-14T02:24:16;20.60;72.60
3075;DHT22;1548;51.716;8.748;2022-08-14T02:26:43;20.60;72.70
3075;DHT22;1548;51.716;8.748;2022-08-14T02:29:16;20.60;72.80
3075;DHT22;1548;51.716;8.748;2022-08-14T02:31:45;20.60;72.80
3075;DHT22;1548;51.716;8.748;2022-08-14T02:34:14;20.50;73.00
3075;DHT22;1548;51.716;8.748;2022-08-14T02:36:43;20.50;72.90
3075;DHT22;1548;51.716;8.748;2022-08-14T02:39:09;20.50;73.00
3075;DHT22;1548;51.716;8.748;2022-08-14T02:41:36;20.50;73.00
3075;DHT22;1548;51.716;8.748;2022-08-14T02:44:07;20.50;73.10
3075;DHT22;1548;51.716;8.748;2022-08-14T02:46:38;20.50;73.00
3075;DHT22;1548;51.716;8.748;2022-08-14T02:49:04;20.40;73.10
3075;DHT22;1548;51.716;8.748;2022-08-14T02:51:32;20.40;73.20
3075;DHT22;1548;51.716;8.748;2022-08-14T02:53:58;20.40;73.20
3075;DHT22;1548;51.716;8.748;2022-08-14T02:56:26;20.40;73.10
3075;DHT22;1548;51.716;8.748;2022-08-14T02:58:54;20.40;73.20
3075;DHT22;1548;51.716;8.748;2022-08-14T03:01:22;20.40;73.30
3075;DHT22;1548;51.716;8.748;2022-08-14T03:03:48;20.30;73.30
3075;DHT22;1548;51.716;8.748;2022-08-14T03:06:18;20.30;73.40
3075;DHT22;1548;51.716;8.748;2022-08-14T03:08:52;20.30;73.40
3075;DHT22;1548;51.716;8.748;2022-08-14T03:11:18;20.20;73.50
3075;DHT22;1548;51.716;8.748;2022-08-14T03:13:47;20.20;73.60
3075;DHT22;1548;51.716;8.748;2022-08-14T03:16:21;20.20;73.60
3075;DHT22;1548;51.716;8.748;2022-08-14T03:18:48;20.20;73.60
3075;DHT22;1548;51.716;8.748;2022-08-14T03:21:17;20.20;73.50
3075;DHT22;1548;51.716;8.748;2022-08-14T03:23:45;20.20;73.60
3075;DHT22;1548;51.716;8.748;2022-08-14T03:26:17;20.20;73.60
3075;DHT22;1548;51.716;8.748;2022-08-14T03:28:46;20.20;73.60
3075;DHT22;1548;51.716;8.748;2022-08-14T03:31:12;20.20;73.70
3075;DHT22;1548;51.716;8.748;2022-08-14T03:33:40;20.20;73.70
3075;DHT22;1548;51.716;8.748;2022-08-14T03:36:10;20.20;73.60
3075;DHT22;1548;51.716;8.748;2022-08-14T03:38:40;20.20;73.60
3075;DHT22;1548;51.716;8.748;2022-08-14T03:41:15;20.20;73.70
3075;DHT22;1548;51.716;8.748;2022-08-14T03:43:42;20.10;73.80
3075;DHT22;1548;51.716;8.748;2022-08-14T03:46:08;20.10;73.90
3075;DHT22;1548;51.716;8.748;2022-08-14T03:48:35;20.00;74.00
3075;DHT22;1548;51.716;8.748;2022-08-14T03:51:03;19.90;74.00
3075;DHT22;1548;51.716;8.748;2022-08-14T03:53:29;19.90;74.00
3075;DHT22;1548;51.716;8.748;2022-08-14T03:55:56;19.90;74.00
3075;DHT22;1548;51.716;8.748;2022-08-14T03:58:23;19.90;74.00
3075;DHT22;1548;51.716;8.748;2022-08-14T04:00:48;19.80;74.10
3075;DHT22;1548;51.716;8.748;2022-08-14T04:03:15;19.80;74.30
3075;DHT22;1548;51.716;8.748;2022-08-14T04:05:40;19.80;74.30
3075;DHT22;1548;51.716;8.748;2022-08-14T04:08:09;19.80;74.30
3075;DHT22;1548;51.716;8.748;2022-08-14T04:10:35;19.80;74.30
3075;DHT22;1548;51.716;8.748;2022-08-14T04:13:03;19.80;74.40
3075;DHT22;1548;51.716;8.748;2022-08-14T04:15:31;19.80;74.30
3075;DHT22;1548;51.716;8.748;2022-08-14T04:18:02;19.80;74.40
3075;DHT22;1548;51.716;8.748;2022-08-14T04:20:28;19.80;74.40
3075;DHT22;1548;51.716;8.748;2022-08-14T04:22:54;19.80;74.40
3075;DHT22;1548;51.716;8.748;2022-08-14T04:25:19;19.80;74.40
3075;DHT22;1548;51.716;8.748;2022-08-14T04:27:45;19.70;74.50
3075;DHT22;1548;51.716;8.748;2022-08-14T04:30:11;19.70;74.50
3075;DHT22;1548;51.716;8.748;2022-08-14T04:32:37;19.70;74.50
3075;DHT22;1548;51.716;8.748;2022-08-14T04:35:03;19.70;74.50
3075;DHT22;1548;51.716;8.748;2022-08-14T04:37:29;19.70;74.60
3075;DHT22;1548;51.716;8.748;2022-08-14T04:40:13;19.80;74.60
3075;DHT22;1548;51.716;8.748;2022-08-14T04:42:58;19.80;74.50
3075;DHT22;1548;51.716;8.748;2022-08-14T04:45:43;19.80;74.50
3075;DHT22;1548;51.716;8.748;2022-08-14T04:48:13;19.90;74.50
3075;DHT22;1548;51.716;8.748;2022-08-14T04:50:50;19.90;74.40
3075;DHT22;1548;51.716;8.748;2022-08-14T04:53:19;19.90;74.50
3075;DHT22;1548;51.716;8.748;2022-08-14T04:55:46;19.90;74.50
3075;DHT22;1548;51.716;8.748;2022-08-14T04:58:14;19.90;74.50
3075;DHT22;1548;51.716;8.748;2022-08-14T05:00:39;19.90;74.40
3075;DHT22;1548;51.716;8.748;2022-08-14T05:03:06;20.00;74.40
3075;DHT22;1548;51.716;8.748;2022-08-14T05:05:32;20.10;74.20
3075;DHT22;1548;51.716;8.748;2022-08-14T05:08:08;20.10;74.10
3075;DHT22;1548;51.716;8.748;2022-08-14T05:10:40;20.20;74.20
3075;DHT22;1548;51.716;8.748;2022-08-14T05:13:08;20.20;74.00
3075;DHT22;1548;51.716;8.748;2022-08-14T05:15:35;20.20;74.10
3075;DHT22;1548;51.716;8.748;2022-08-14T05:18:49;20.20;74.00
3075;DHT22;1548;51.716;8.748;2022-08-14T05:20:58;20.30;74.00
3075;DHT22;1548;51.716;8.748;2022-08-14T05:23:25;20.40;73.80
3075;DHT22;1548;51.716;8.748;2022-08-14T05:25:53;20.50;73.80
3075;DHT22;1548;51.716;8.748;2022-08-14T05:28:22;20.50;73.70
3075;DHT22;1548;51.716;8.748;2022-08-14T05:30:53;20.60;73.50
3075;DHT22;1548;51.716;8.748;2022-08-14T05:33:21;20.60;73.40
3075;DHT22;1548;51.716;8.748;2022-08-14T05:35:49;20.70;73.50
3075;DHT22;1548;51.716;8.748;2022-08-14T05:38:17;20.70;73.30
3075;DHT22;1548;51.716;8.748;2022-08-14T05:40:43;20.80;73.30
3075;DHT22;1548;51.716;8.748;2022-08-14T05:43:09;20.90;73.20
3075;DHT22;1548;51.716;8.748;2022-08-14T05:45:36;20.90;73.10
3075;DHT22;1548;51.716;8.748;2022-08-14T05:48:02;21.00;73.10
3075;DHT22;1548;51.716;8.748;2022-08-14T05:50:29;21.10;72.90
3075;DHT22;1548;51.716;8.748;2022-08-14T05:52:54;21.20;72.90
3075;DHT22;1548;51.716;8.748;2022-08-14T05:55:21;21.20;72.80
3075;DHT22;1548;51.716;8.748;2022-08-14T05:57:54;21.20;72.70
3075;DHT22;1548;51.716;8.748;2022-08-14T06:00:22;21.30;72.60
3075;DHT22;1548;51.716;8.748;2022-08-14T06:02:48;21.40;72.50
3075;DHT22;1548;51.716;8.748;2022-08-14T06:05:14;21.50;72.40
3075;DHT22;1548;51.716;8.748;2022-08-14T06:07:40;21.60;72.30
3075;DHT22;1548;51.716;8.748;2022-08-14T06:10:08;21.70;72.20
3075;DHT22;1548;51.716;8.748;2022-08-14T06:12:35;21.80;72.10
3075;DHT22;1548;51.716;8.748;2022-08-14T06:15:01;21.90;72.00
3075;DHT22;1548;51.716;8.748;2022-08-14T06:17:27;22.00;71.70
3075;DHT22;1548;51.716;8.748;2022-08-14T06:19:53;22.10;71.60
3075;DHT22;1548;51.716;8.748;2022-08-14T06:22:18;22.20;71.50
3075;DHT22;1548;51.716;8.748;2022-08-14T06:24:44;22.30;71.40
3075;DHT22;1548;51.716;8.748;2022-08-14T06:27:10;22.30;71.40
3075;DHT22;1548;51.716;8.748;2022-08-14T06:29:36;22.40;71.20
3075;DHT22;1548;51.716;8.748;2022-08-14T06:32:03;22.50;71.10
3075;DHT22;1548;51.716;8.748;2022-08-14T06:34:29;22.50;71.10
3075;DHT22;1548;51.716;8.748;2022-08-14T06:36:55;22.70;71.00
3075;DHT22;1548;51.716;8.748;2022-08-14T06:39:22;22.80;70.80
3075;DHT22;1548;51.716;8.748;2022-08-14T06:41:48;22.90;70.60
3075;DHT22;1548;51.716;8.748;2022-08-14T06:44:14;22.90;70.60
3075;DHT22;1548;51.716;8.748;2022-08-14T06:46:39;23.10;70.40
3075;DHT22;1548;51.716;8.748;2022-08-14T06:49:05;23.20;70.50
3075;DHT22;1548;51.716;8.748;2022-08-14T06:51:31;23.40;70.20
3075;DHT22;1548;51.716;8.748;2022-08-14T06:53:56;23.40;70.00
3075;DHT22;1548;51.716;8.748;2022-08-14T06:56:22;23.50;69.90
3075;DHT22;1548;51.716;8.748;2022-08-14T06:58:48;23.70;69.80
3075;DHT22;1548;51.716;8.748;2022-08-14T07:01:14;23.70;69.70
3075;DHT22;1548;51.716;8.748;2022-08-14T07:03:57;23.80;69.70
3075;DHT22;1548;51.716;8.748;2022-08-14T07:06:41;23.90;69.50
3075;DHT22;1548;51.716;8.748;2022-08-14T07:09:09;24.00;69.30
3075;DHT22;1548;51.716;8.748;2022-08-14T07:11:35;24.20;69.10
3075;DHT22;1548;51.716;8.748;2022-08-14T07:14:01;24.20;69.00
3075;DHT22;1548;51.716;8.748;2022-08-14T07:16:26;24.20;68.90
3075;DHT22;1548;51.716;8.748;2022-08-14T07:18:52;24.30;68.80
3075;DHT22;1548;51.716;8.748;2022-08-14T07:21:18;24.10;68.80
3075;DHT22;1548;51.716;8.748;2022-08-14T07:23:44;24.10;68.90
3075;DHT22;1548;51.716;8.748;2022-08-14T07:26:10;24.10;69.00
3075;DHT22;1548;51.716;8.748;2022-08-14T07:28:38;24.20;68.90
3075;DHT22;1548;51.716;8.748;2022-08-14T07:31:07;24.30;68.80
3075;DHT22;1548;51.716;8.748;2022-08-14T07:33:46;24.50;68.50
3075;DHT22;1548;51.716;8.748;2022-08-14T07:36:14;24.50;68.50
3075;DHT22;1548;51.716;8.748;2022-08-14T07:38:40;24.50;68.60
3075;DHT22;1548;51.716;8.748;2022-08-14T07:41:07;24.50;68.80
3075;DHT22;1548;51.716;8.748;2022-08-14T07:43:34;24.50;68.70
3075;DHT22;1548;51.716;8.748;2022-08-14T07:46:01;24.60;68.70
3075;DHT22;1548;51.716;8.748;2022-08-14T07:48:27;24.50;68.60
3075;DHT22;1548;51.716;8.748;2022-08-14T07:50:53;24.40;68.80
3075;DHT22;1548;51.716;8.748;2022-08-14T07:53:19;24.40;68.70
3075;DHT22;1548;51.716;8.748;2022-08-14T07:55:46;24.30;68.80
3075;DHT22;1548;51.716;8.748;2022-08-14T07:58:13;24.40;68.80
3075;DHT22;1548;51.716;8.748;2022-08-14T08:00:39;24.40;68.70
3075;DHT22;1548;51.716;8.748;2022-08-14T08:03:08;24.40;68.70
3075;DHT22;1548;51.716;8.748;2022-08-14T08:05:35;24.40;68.70
3075;DHT22;1548;51.716;8.748;2022-08-14T08:08:02;24.60;68.30
3075;DHT22;1548;51.716;8.748;2022-08-14T08:10:28;24.60;68.60
3075;DHT22;1548;51.716;8.748;2022-08-14T08:13:01;24.70;68.40
3075;DHT22;1548;51.716;8.748;2022-08-14T08:15:30;24.60;68.40
3075;DHT22;1548;51.716;8.748;2022-08-14T08:17:58;24.70;68.20
3075;DHT22;1548;51.716;8.748;2022-08-14T08:20:25;24.90;68.00
3075;DHT22;1548;51.716;8.748;2022-08-14T08:22:52;25.00;67.80
3075;DHT22;1548;51.716;8.748;2022-08-14T08:25:28;24.90;67.70
3075;DHT22;1548;51.716;8.748;2022-08-14T08:28:04;25.00;67.80
3075;DHT22;1548;51.716;8.748;2022-08-14T08:30:33;25.00;67.50
3075;DHT22;1548;51.716;8.748;2022-08-14T08:33:00;25.20;67.30
3075;DHT22;1548;51.716;8.748;2022-08-14T08:35:28;25.40;66.80
3075;DHT22;1548;51.716;8.748;2022-08-14T08:38:00;25.50;66.80
3075;DHT22;1548;51.716;8.748;2022-08-14T08:40:38;25.60;66.10
3075;DHT22;1548;51.716;8.748;2022-08-14T08:43:07;25.60;66.20
3075;DHT22;1548;51.716;8.748;2022-08-14T08:45:35;25.70;65.90
3075;DHT22;1548;51.716;8.748;2022-08-14T08:48:02;25.70;66.00
3075;DHT22;1548;51.716;8.748;2022-08-14T08:50:34;25.80;66.00
3075;DHT22;1548;51.716;8.748;2022-08-14T08:53:05;26.00;65.50
3075;DHT22;1548;51.716;8.748;2022-08-14T08:55:36;25.90;65.90
3075;DHT22;1548;51.716;8.748;2022-08-14T08:58:15;26.00;65.80
3075;DHT22;1548;51.716;8.748;2022-08-14T09:00:45;25.90;65.70
3075;DHT22;1548;51.716;8.748;2022-08-14T09:03:13;25.90;65.60
3075;DHT22;1548;51.716;8.748;2022-08-14T09:08:30;26.20;64.80
3075;DHT22;1548;51.716;8.748;2022-08-14T09:10:56;26.10;64.90
3075;DHT22;1548;51.716;8.748;2022-08-14T09:13:22;26.10;64.80
3075;DHT22;1548;51.716;8.748;2022-08-14T09:15:53;26.00;64.70
3075;DHT22;1548;51.716;8.748;2022-08-14T09:18:21;26.10;65.00
3075;DHT22;1548;51.716;8.748;2022-08-14T09:20:52;26.30;65.10
3075;DHT22;1548;51.716;8.748;2022-08-14T09:23:19;26.20;65.00
3075;DHT22;1548;51.716;8.748;2022-08-14T09:25:47;26.20;64.90
3075;DHT22;1548;51.716;8.748;2022-08-14T09:28:15;26.10;64.60
3075;DHT22;1548;51.716;8.748;2022-08-14T09:30:51;26.20;64.60
3075;DHT22;1548;51.716;8.748;2022-08-14T09:45:21;26.70;63.90
3075;DHT22;1548;51.716;8.748;2022-08-14T09:47:55;26.70;63.90
3075;DHT22;1548;51.716;8.748;2022-08-14T09:51:03;26.90;63.60
3075;DHT22;1548;51.716;8.748;2022-08-14T09:53:10;26.70;64.00
3075;DHT22;1548;51.716;8.748;2022-08-14T09:55:39;26.80;63.90
3075;DHT22;1548;51.716;8.748;2022-08-14T09:58:11;26.90;63.60
3075;DHT22;1548;51.716;8.748;2022-08-14T10:00:46;27.00;63.10
3075;DHT22;1548;51.716;8.748;2022-08-14T10:03:33;27.20;62.00
3075;DHT22;1548;51.716;8.748;2022-08-14T10:06:19;27.10;62.40
3075;DHT22;1548;51.716;8.748;2022-08-14T10:08:49;27.20;62.10
3075;DHT22;1548;51.716;8.748;2022-08-14T10:11:23;27.30;62.00
3075;DHT22;1548;51.716;8.748;2022-08-14T10:13:56;27.40;61.40
3075;DHT22;1548;51.716;8.748;2022-08-14T10:16:27;27.40;61.40
3075;DHT22;1548;51.716;8.748;2022-08-14T10:19:09;27.60;61.50
3075;DHT22;1548;51.716;8.748;2022-08-14T10:21:36;27.80;60.80
3075;DHT22;1548;51.716;8.748;2022-08-14T10:24:03;27.80;60.90
3075;DHT22;1548;51.716;8.748;2022-08-14T10:26:33;27.90;60.60
3075;DHT22;1548;51.716;8.748;2022-08-14T10:29:09;27.90;60.80
3075;DHT22;1548;51.716;8.748;2022-08-14T10:31:36;28.00;60.70
3075;DHT22;1548;51.716;8.748;2022-08-14T10:34:12;28.00;60.50
3075;DHT22;1548;51.716;8.748;2022-08-14T10:36:43;28.30;60.00
3075;DHT22;1548;51.716;8.748;2022-08-14T10:39:21;28.50;59.40
3075;DHT22;1548;51.716;8.748;2022-08-14T10:41:51;28.50;59.10
3075;DHT22;1548;51.716;8.748;2022-08-14T10:44:31;28.50;59.30
3075;DHT22;1548;51.716;8.748;2022-08-14T10:46:57;28.20;59.90
3075;DHT22;1548;51.716;8.748;2022-08-14T10:49:27;28.30;59.70
3075;DHT22;1548;51.716;8.748;2022-08-14T10:52:19;28.60;58.70
3075;DHT22;1548;51.716;8.748;2022-08-14T10:54:46;28.80;58.30
3075;DHT22;1548;51.716;8.748;2022-08-14T10:59:50;28.80;58.60
3075;DHT22;1548;51.716;8.748;2022-08-14T11:05:17;29.20;57.20
3075;DHT22;1548;51.716;8.748;2022-08-14T11:07:57;29.20;56.80
3075;DHT22;1548;51.716;8.748;2022-08-14T11:10:49;29.40;56.70
3075;DHT22;1548;51.716;8.748;2022-08-14T11:13:24;29.70;56.20
3075;DHT22;1548;51.716;8.748;2022-08-14T11:15:51;29.90;55.90
3075;DHT22;1548;51.716;8.748;2022-08-14T11:18:19;29.70;56.10
3075;DHT22;1548;51.716;8.748;2022-08-14T11:20:53;29.80;55.80
3075;DHT22;1548;51.716;8.748;2022-08-14T11:23:21;29.80;55.80
3075;DHT22;1548;51.716;8.748;2022-08-14T11:25:47;29.80;55.70
3075;DHT22;1548;51.716;8.748;2022-08-14T11:28:14;29.80;55.60
3075;DHT22;1548;51.716;8.748;2022-08-14T11:30:43;29.90;55.60
3075;DHT22;1548;51.716;8.748;2022-08-14T11:33:11;29.90;55.60
3075;DHT22;1548;51.716;8.748;2022-08-14T11:35:37;30.30;55.10
3075;DHT22;1548;51.716;8.748;2022-08-14T11:38:05;30.50;54.50
3075;DHT22;1548;51.716;8.748;2022-08-14T11:40:35;30.30;54.50
3075;DHT22;1548;51.716;8.748;2022-08-14T11:43:05;30.30;54.60
3075;DHT22;1548;51.716;8.748;2022-08-14T11:45:36;30.20;54.60
3075;DHT22;1548;51.716;8.748;2022-08-14T11:48:22;30.30;54.80
3075;DHT22;1548;51.716;8.748;2022-08-14T11:50:49;30.50;54.10
3075;DHT22;1548;51.716;8.748;2022-08-14T11:53:29;30.30;54.20
3075;DHT22;1548;51.716;8.748;2022-08-14T11:56:00;29.90;54.90
3075;DHT22;1548;51.716;8.748;2022-08-14T11:58:31;29.80;55.00
3075;DHT22;1548;51.716;8.748;2022-08-14T12:01:08;29.60;55.50
3075;DHT22;1548;51.716;8.748;2022-08-14T12:03:45;29.70;55.20
3075;DHT22;1548;51.716;8.748;2022-08-14T12:06:13;29.80;54.60
3075;DHT22;1548;51.716;8.748;2022-08-14T12:08:39;29.70;55.00
3075;DHT22;1548;51.716;8.748;2022-08-14T12:11:08;29.60;55.10
3075;DHT22;1548;51.716;8.748;2022-08-14T12:13:34;29.60;55.20
3075;DHT22;1548;51.716;8.748;2022-08-14T12:16:05;29.60;55.30
3075;DHT22;1548;51.716;8.748;2022-08-14T12:18:34;29.90;55.00
3075;DHT22;1548;51.716;8.748;2022-08-14T12:21:17;30.10;54.30
3075;DHT22;1548;51.716;8.748;2022-08-14T12:23:45;30.10;54.00
3075;DHT22;1548;51.716;8.748;2022-08-14T12:26:16;30.30;53.40
3075;DHT22;1548;51.716;8.748;2022-08-14T12:28:48;30.20;53.70
3075;DHT22;1548;51.716;8.748;2022-08-14T12:31:17;30.10;54.00
3075;DHT22;1548;51.716;8.748;2022-08-14T12:33:55;29.90;54.10
3075;DHT22;1548;51.716;8.748;2022-08-14T12:36:21;29.90;54.30
3075;DHT22;1548;51.716;8.748;2022-08-14T12:38:47;29.90;54.30
3075;DHT22;1548;51.716;8.748;2022-08-14T12:41:17;30.10;53.90
3075;DHT22;1548;51.716;8.748;2022-08-14T12:43:51;30.30;53.70
3075;DHT22;1548;51.716;8.748;2022-08-14T12:46:44;30.50;53.40
3075;DHT22;1548;51.716;8.748;2022-08-14T12:49:15;30.60;53.40
3075;DHT22;1548;51.716;8.748;2022-08-14T12:51:42;30.90;52.30
3075;DHT22;1548;51.716;8.748;2022-08-14T12:54:18;31.00;51.90
3075;DHT22;1548;51.716;8.748;2022-08-14T12:56:45;31.20;51.30
3075;DHT22;1548;51.716;8.748;2022-08-14T12:59:12;31.50;50.60
3075;DHT22;1548;51.716;8.748;2022-08-14T13:01:38;31.30;50.60
3075;DHT22;1548;51.716;8.748;2022-08-14T13:04:13;31.20;50.70
3075;DHT22;1548;51.716;8.748;2022-08-14T13:06:42;31.20;50.60
3075;DHT22;1548;51.716;8.748;2022-08-14T13:09:10;31.30;50.30
3075;DHT22;1548;51.716;8.748;2022-08-14T13:11:42;31.40;50.00
3075;DHT22;1548;51.716;8.748;2022-08-14T13:14:11;31.60;49.50
3075;DHT22;1548;51.716;8.748;2022-08-14T13:16:39;31.70;49.60
3075;DHT22;1548;51.716;8.748;2022-08-14T13:19:13;31.70;49.60
3075;DHT22;1548;51.716;8.748;2022-08-14T13:21:44;31.70;49.80
3075;DHT22;1548;51.716;8.748;2022-08-14T13:24:12;31.70;49.80
3075;DHT22;1548;51.716;8.748;2022-08-14T13:26:58;31.70;49.60
3075;DHT22;1548;51.716;8.748;2022-08-14T13:29:29;31.70;49.60
3075;DHT22;1548;51.716;8.748;2022-08-14T13:31:57;31.70;49.50
3075;DHT22;1548;51.716;8.748;2022-08-14T13:34:26;31.60;49.70
3075;DHT22;1548;51.716;8.748;2022-08-14T13:36:52;31.50;49.40
3075;DHT22;1548;51.716;8.748;2022-08-14T13:39:19;31.50;49.60
3075;DHT22;1548;51.716;8.748;2022-08-14T13:41:45;31.50;49.50
3075;DHT22;1548;51.716;8.748;2022-08-14T13:44:12;31.40;49.90
3075;DHT22;1548;51.716;8.748;2022-08-14T13:46:40;31.20;49.50
3075;DHT22;1548;51.716;8.748;2022-08-14T13:49:06;31.20;49.80
3075;DHT22;1548;51.716;8.748;2022-08-14T13:51:39;31.40;49.60
3075;DHT22;1548;51.716;8.748;2022-08-14T13:54:06;31.40;49.20
3075;DHT22;1548;51.716;8.748;2022-08-14T13:56:37;31.60;49.00
3075;DHT22;1548;51.716;8.748;2022-08-14T13:59:03;31.00;50.20
3075;DHT22;1548;51.716;8.748;2022-08-14T14:01:29;31.00;50.50
3075;DHT22;1548;51.716;8.748;2022-08-14T14:03:59;31.10;50.40
3075;DHT22;1548;51.716;8.748;2022-08-14T14:06:25;31.30;50.30
3075;DHT22;1548;51.716;8.748;2022-08-14T14:08:54;31.60;49.80
3075;DHT22;1548;51.716;8.748;2022-08-14T14:11:20;31.90;49.20
3075;DHT22;1548;51.716;8.748;2022-08-14T14:13:55;31.80;49.10
3075;DHT22;1548;51.716;8.748;2022-08-14T14:16:21;31.40;49.30
3075;DHT22;1548;51.716;8.748;2022-08-14T14:18:49;31.50;49.20
3075;DHT22;1548;51.716;8.748;2022-08-14T14:21:21;31.40;49.50
3075;DHT22;1548;51.716;8.748;2022-08-14T14:23:49;31.40;49.50
3075;DHT22;1548;51.716;8.748;2022-08-14T14:26:17;31.40;49.70
3075;DHT22;1548;51.716;8.748;2022-08-14T14:28:47;31.50;49.40
3075;DHT22;1548;51.716;8.748;2022-08-14T14:31:21;31.30;49.50
3075;DHT22;1548;51.716;8.748;2022-08-14T14:33:49;31.40;49.50
3075;DHT22;1548;51.716;8.748;2022-08-14T14:36:22;31.40;49.20
3075;DHT22;1548;51.716;8.748;2022-08-14T14:39:00;31.60;49.20
3075;DHT22;1548;51.716;8.748;2022-08-14T14:41:28;31.50;49.30
3075;DHT22;1548;51.716;8.748;2022-08-14T14:43:55;31.30;49.60
3075;DHT22;1548;51.716;8.748;2022-08-14T14:46:23;31.20;49.80
3075;DHT22;1548;51.716;8.748;2022-08-14T14:48:49;31.20;49.80
3075;DHT22;1548;51.716;8.748;2022-08-14T14:51:16;31.20;49.60
3075;DHT22;1548;51.716;8.748;2022-08-14T14:53:44;31.00;49.30
3075;DHT22;1548;51.716;8.748;2022-08-14T14:56:09;30.80;49.10
3075;DHT22;1548;51.716;8.748;2022-08-14T14:58:40;30.90;49.00
3075;DHT22;1548;51.716;8.748;2022-08-14T15:01:08;30.70;48.40
3075;DHT22;1548;51.716;8.748;2022-08-14T15:03:35;30.70;48.80
3075;DHT22;1548;51.716;8.748;2022-08-14T15:06:03;30.70;48.90
3075;DHT22;1548;51.716;8.748;2022-08-14T15:08:29;30.80;49.20
3075;DHT22;1548;51.716;8.748;2022-08-14T15:10:56;30.70;49.50
3075;DHT22;1548;51.716;8.748;2022-08-14T15:13:22;31.00;49.20
3075;DHT22;1548;51.716;8.748;2022-08-14T15:15:47;31.40;48.60
3075;DHT22;1548;51.716;8.748;2022-08-14T15:18:13;31.30;48.50
3075;DHT22;1548;51.716;8.748;2022-08-14T15:20:39;31.40;48.40
3075;DHT22;1548;51.716;8.748;2022-08-14T15:23:05;31.40;48.50
3075;DHT22;1548;51.716;8.748;2022-08-14T15:25:31;31.70;48.10
3075;DHT22;1548;51.716;8.748;2022-08-14T15:27:58;31.90;47.80
3075;DHT22;1548;51.716;8.748;2022-08-14T15:30:25;32.00;46.90
3075;DHT22;1548;51.716;8.748;2022-08-14T15:32:51;32.10;46.90
3075;DHT22;1548;51.716;8.748;2022-08-14T15:35:16;32.20;46.90
3075;DHT22;1548;51.716;8.748;2022-08-14T15:37:42;32.20;46.90
3075;DHT22;1548;51.716;8.748;2022-08-14T15:40:08;32.40;47.00
3075;DHT22;1548;51.716;8.748;2022-08-14T15:42:36;32.50;47.60
3075;DHT22;1548;51.716;8.748;2022-08-14T15:45:04;32.80;48.10
3075;DHT22;1548;51.716;8.748;2022-08-14T15:47:35;33.00;48.00
3075;DHT22;1548;51.716;8.748;2022-08-14T15:50:03;33.30;47.70
3075;DHT22;1548;51.716;8.748;2022-08-14T15:52:31;32.70;48.20
3075;DHT22;1548;51.716;8.748;2022-08-14T15:54:57;32.20;48.70
3075;DHT22;1548;51.716;8.748;2022-08-14T15:57:23;31.60;49.20
3075;DHT22;1548;51.716;8.748;2022-08-14T15:59:49;31.70;48.90
3075;DHT22;1548;51.716;8.748;2022-08-14T16:02:32;31.70;48.90
3075;DHT22;1548;51.716;8.748;2022-08-14T16:04:58;31.90;48.80
3075;DHT22;1548;51.716;8.748;2022-08-14T16:07:24;31.80;49.20
3075;DHT22;1548;51.716;8.748;2022-08-14T16:09:50;31.60;49.60
3075;DHT22;1548;51.716;8.748;2022-08-14T16:12:16;31.60;49.80
3075;DHT22;1548;51.716;8.748;2022-08-14T16:14:41;31.80;49.50
3075;DHT22;1548;51.716;8.748;2022-08-14T16:17:08;31.90;49.60
3075;DHT22;1548;51.716;8.748;2022-08-14T16:19:35;31.60;50.00
3075;DHT22;1548;51.716;8.748;2022-08-14T16:22:03;31.10;50.90
3075;DHT22;1548;51.716;8.748;2022-08-14T16:24:32;31.00;51.20
3075;DHT22;1548;51.716;8.748;2022-08-14T16:26:59;31.40;50.80
3075;DHT22;1548;51.716;8.748;2022-08-14T16:29:25;31.80;49.80
3075;DHT22;1548;51.716;8.748;2022-08-14T16:31:51;31.90;49.40
3075;DHT22;1548;51.716;8.748;2022-08-14T16:34:17;31.90;49.40